sensor_id;sensor_type;location;lat;lon;timestamp;pressure;altitude;pressure_sealevel;temperature;humidity
70103;BME280;57470;50.034;15.256;2023-01-24T00:01:22;101187.03;;;2.68;98.80
70103;BME280;57470;50.034;15.256;2023-01-24T00:03:48;101192.22;;;2.75;98.44
70103;BME280;57470;50.034;15.256;2023-01-24T00:06:13;101190.50;;;2.71;98.08
70103;BME280;57470;50.034;15.256;2023-01-24T00:08:39;101192.22;;;2.72;98.23
70103;BME280;57470;50.034;15.256;2023-01-24T00:11:08;101196.63;;;2.72;98.29
70103;BME280;57470;50.034;15.256;2023-01-24T00:13:34;101193.09;;;2.74;97.97
70103;BME280;57470;50.034;15.256;2023-01-24T00:16:14;101188.63;;;2.85;97.95
70103;BME280;57470;50.034;15.256;2023-01-24T00:18:40;101189.44;;;2.92;97.58
70103;BME280;57470;50.034;15.256;2023-01-24T00:21:11;101182.31;;;3.01;96.93
70103;BME280;57470;50.034;15.256;2023-01-24T00:23:49;101190.22;;;3.01;96.96
70103;BME280;57470;50.034;15.256;2023-01-24T00:26:16;101191.25;;;2.85;97.04
70103;BME280;57470;50.034;15.256;2023-01-24T00:28:42;101191.00;;;3.07;96.66
70103;BME280;57470;50.034;15.256;2023-01-24T00:31:07;101182.25;;;3.06;96.59
70103;BME280;57470;50.034;15.256;2023-01-24T00:33:33;101188.56;;;2.91;96.90
70103;BME280;57470;50.034;15.256;2023-01-24T00:35:59;101188.56;;;2.88;97.51
70103;BME280;57470;50.034;15.256;2023-01-24T00:38:25;101191.88;;;3.07;96.68
70103;BME280;57470;50.034;15.256;2023-01-24T00:40:50;101200.72;;;3.01;96.46
70103;BME280;57470;50.034;15.256;2023-01-24T00:43:16;101198.88;;;3.08;96.63
70103;BME280;57470;50.034;15.256;2023-01-24T00:45:43;101198.91;;;3.07;96.19
70103;BME280;57470;50.034;15.256;2023-01-24T00:48:09;101197.31;;;2.89;97.25
70103;BME280;57470;50.034;15.256;2023-01-24T00:50:35;101197.94;;;3.14;96.35
70103;BME280;57470;50.034;15.256;2023-01-24T00:53:01;101206.75;;;3.11;96.06
70103;BME280;57470;50.034;15.256;2023-01-24T00:55:27;101213.78;;;3.08;96.18
70103;BME280;57470;50.034;15.256;2023-01-24T00:57:52;101211.19;;;3.05;96.26
70103;BME280;57470;50.034;15.256;2023-01-24T01:00:18;101209.50;;;2.99;96.53
70103;BME280;57470;50.034;15.256;2023-01-24T01:02:44;101211.22;;;3.03;96.39
70103;BME280;57470;50.034;15.256;2023-01-24T01:05:09;101206.00;;;2.98;96.51
70103;BME280;57470;50.034;15.256;2023-01-24T01:07:34;101202.50;;;2.98;96.63
70103;BME280;57470;50.034;15.256;2023-01-24T01:10:00;101211.25;;;2.98;96.65
70103;BME280;57470;50.034;15.256;2023-01-24T01:12:26;101206.88;;;2.97;96.72
70103;BME280;57470;50.034;15.256;2023-01-24T01:14:51;101199.88;;;2.96;96.57
70103;BME280;57470;50.034;15.256;2023-01-24T01:17:17;101207.84;;;2.90;96.45
70103;BME280;57470;50.034;15.256;2023-01-24T01:19:42;101213.09;;;2.89;96.63
70103;BME280;57470;50.034;15.256;2023-01-24T01:22:08;101204.56;;;2.67;97.66
70103;BME280;57470;50.034;15.256;2023-01-24T01:24:34;101205.28;;;2.83;97.86
70103;BME280;57470;50.034;15.256;2023-01-24T01:26:59;101207.91;;;2.84;97.74
70103;BME280;57470;50.034;15.256;2023-01-24T01:29:25;101220.09;;;2.88;96.85
70103;BME280;57470;50.034;15.256;2023-01-24T01:31:50;101206.94;;;2.94;96.71
70103;BME280;57470;50.034;15.256;2023-01-24T01:34:16;101216.69;;;2.80;97.32
70103;BME280;57470;50.034;15.256;2023-01-24T01:36:41;101214.34;;;2.42;97.86
70103;BME280;57470;50.034;15.256;2023-01-24T01:39:07;101220.38;;;2.58;98.20
70103;BME280;57470;50.034;15.256;2023-01-24T01:41:32;101222.97;;;2.64;98.53
70103;BME280;57470;50.034;15.256;2023-01-24T01:44:26;101219.53;;;2.51;98.67
70103;BME280;57470;50.034;15.256;2023-01-24T01:49:47;101228.94;;;2.81;97.71
70103;BME280;57470;50.034;15.256;2023-01-24T01:52:14;101232.53;;;2.71;97.52
70103;BME280;57470;50.034;15.256;2023-01-24T01:54:41;101217.66;;;2.69;97.73
70103;BME280;57470;50.034;15.256;2023-01-24T01:57:26;101230.59;;;2.93;96.93
70103;BME280;57470;50.034;15.256;2023-01-24T01:59:59;101228.06;;;2.82;96.85
70103;BME280;57470;50.034;15.256;2023-01-24T02:02:26;101234.28;;;2.72;97.14
70103;BME280;57470;50.034;15.256;2023-01-24T02:04:57;101239.59;;;2.66;97.54
70103;BME280;57470;50.034;15.256;2023-01-24T02:07:30;101242.38;;;2.43;99.02
70103;BME280;57470;50.034;15.256;2023-01-24T02:09:57;101237.97;;;2.47;98.68
70103;BME280;57470;50.034;15.256;2023-01-24T02:12:28;101234.59;;;2.26;98.93
70103;BME280;57470;50.034;15.256;2023-01-24T02:14:58;101235.34;;;2.47;98.87
70103;BME280;57470;50.034;15.256;2023-01-24T02:17:43;101235.34;;;2.48;98.56
70103;BME280;57470;50.034;15.256;2023-01-24T02:23:17;101233.59;;;2.46;98.17
70103;BME280;57470;50.034;15.256;2023-01-24T02:26:11;101223.88;;;2.58;98.05
70103;BME280;57470;50.034;15.256;2023-01-24T02:28:39;101227.47;;;2.48;98.21
70103;BME280;57470;50.034;15.256;2023-01-24T02:31:06;101226.47;;;2.63;97.68
70103;BME280;57470;50.034;15.256;2023-01-24T02:33:32;101222.09;;;2.63;97.39
70103;BME280;57470;50.034;15.256;2023-01-24T02:39:04;101223.91;;;2.55;97.43
70103;BME280;57470;50.034;15.256;2023-01-24T02:41:38;101219.47;;;2.60;97.44
70103;BME280;57470;50.034;15.256;2023-01-24T02:44:09;101214.28;;;2.54;97.48
70103;BME280;57470;50.034;15.256;2023-01-24T02:46:37;101208.16;;;2.51;97.43
70103;BME280;57470;50.034;15.256;2023-01-24T02:49:07;101202.91;;;2.52;97.43
70103;BME280;57470;50.034;15.256;2023-01-24T02:51:34;101204.78;;;2.38;97.79
70103;BME280;57470;50.034;15.256;2023-01-24T02:54:19;101211.72;;;2.44;97.71
70103;BME280;57470;50.034;15.256;2023-01-24T02:56:45;101208.34;;;2.31;97.64
70103;BME280;57470;50.034;15.256;2023-01-24T02:59:30;101196.03;;;2.38;98.08
70103;BME280;57470;50.034;15.256;2023-01-24T03:01:58;101193.50;;;2.24;98.28
70103;BME280;57470;50.034;15.256;2023-01-24T03:04:25;101191.78;;;2.20;98.72
70103;BME280;57470;50.034;15.256;2023-01-24T03:06:51;101199.66;;;2.20;98.29
70103;BME280;57470;50.034;15.256;2023-01-24T03:09:18;101204.09;;;2.10;98.90
70103;BME280;57470;50.034;15.256;2023-01-24T03:11:49;101206.66;;;2.16;98.41
70103;BME280;57470;50.034;15.256;2023-01-24T03:14:16;101208.53;;;2.02;98.48
70103;BME280;57470;50.034;15.256;2023-01-24T03:17:00;101210.16;;;2.21;98.50
70103;BME280;57470;50.034;15.256;2023-01-24T03:19:45;101209.34;;;2.07;98.84
70103;BME280;57470;50.034;15.256;2023-01-24T03:22:30;101219.84;;;2.13;98.09
70103;BME280;57470;50.034;15.256;2023-01-24T03:25:15;101221.59;;;2.14;98.44
70103;BME280;57470;50.034;15.256;2023-01-24T03:28:06;101225.03;;;2.21;98.37
70103;BME280;57470;50.034;15.256;2023-01-24T03:30:50;101229.47;;;2.08;98.30
70103;BME280;57470;50.034;15.256;2023-01-24T03:33:34;101224.22;;;2.14;97.86
70103;BME280;57470;50.034;15.256;2023-01-24T03:36:18;101225.19;;;1.91;98.47
70103;BME280;57470;50.034;15.256;2023-01-24T03:38:45;101230.38;;;2.03;98.63
70103;BME280;57470;50.034;15.256;2023-01-24T03:41:29;101228.66;;;2.00;99.01
70103;BME280;57470;50.034;15.256;2023-01-24T03:43:55;101234.69;;;2.14;98.58
70103;BME280;57470;50.034;15.256;2023-01-24T03:46:20;101224.97;;;2.25;97.90
70103;BME280;57470;50.034;15.256;2023-01-24T03:48:45;101226.72;;;2.25;97.95
70103;BME280;57470;50.034;15.256;2023-01-24T03:51:11;101223.28;;;2.23;97.28
70103;BME280;57470;50.034;15.256;2023-01-24T03:53:55;101230.22;;;2.29;97.27
70103;BME280;57470;50.034;15.256;2023-01-24T03:56:21;101226.66;;;2.40;97.32
70103;BME280;57470;50.034;15.256;2023-01-24T03:58:47;101229.41;;;2.20;97.45
70103;BME280;57470;50.034;15.256;2023-01-24T04:01:12;101224.03;;;2.36;97.33
70103;BME280;57470;50.034;15.256;2023-01-24T04:03:38;101231.09;;;2.31;97.14
70103;BME280;57470;50.034;15.256;2023-01-24T04:06:03;101229.31;;;2.34;97.24
70103;BME280;57470;50.034;15.256;2023-01-24T04:08:28;101230.22;;;2.25;97.61
70103;BME280;57470;50.034;15.256;2023-01-24T04:10:55;101220.66;;;2.20;98.03
70103;BME280;57470;50.034;15.256;2023-01-24T04:13:21;101220.78;;;2.03;98.95
70103;BME280;57470;50.034;15.256;2023-01-24T04:15:46;101217.22;;;2.13;99.24
70103;BME280;57470;50.034;15.256;2023-01-24T04:18:12;101224.16;;;2.16;98.84
70103;BME280;57470;50.034;15.256;2023-01-24T04:20:37;101220.66;;;2.21;98.58
70103;BME280;57470;50.034;15.256;2023-01-24T04:23:04;101224.09;;;2.26;98.28
70103;BME280;57470;50.034;15.256;2023-01-24T04:25:31;101224.16;;;2.20;98.27
70103;BME280;57470;50.034;15.256;2023-01-24T04:27:56;101221.53;;;2.23;98.33
70103;BME280;57470;50.034;15.256;2023-01-24T04:30:22;101217.97;;;2.29;98.18
70103;BME280;57470;50.034;15.256;2023-01-24T04:32:47;101218.84;;;2.26;97.85
70103;BME280;57470;50.034;15.256;2023-01-24T04:35:26;101218.91;;;2.23;97.76
70103;BME280;57470;50.034;15.256;2023-01-24T04:37:52;101217.97;;;2.26;97.58
70103;BME280;57470;50.034;15.256;2023-01-24T04:40:18;101228.53;;;2.15;98.22
70103;BME280;57470;50.034;15.256;2023-01-24T04:42:43;101223.28;;;2.21;97.87
70103;BME280;57470;50.034;15.256;2023-01-24T04:45:10;101211.91;;;2.16;97.99
70103;BME280;57470;50.034;15.256;2023-01-24T04:47:36;101214.59;;;2.13;98.29
70103;BME280;57470;50.034;15.256;2023-01-24T04:50:01;101214.66;;;2.03;98.27
70103;BME280;57470;50.034;15.256;2023-01-24T04:52:27;101216.34;;;2.10;98.75
70103;BME280;57470;50.034;15.256;2023-01-24T04:54:52;101209.28;;;2.16;98.47
70103;BME280;57470;50.034;15.256;2023-01-24T04:57:18;101217.31;;;1.92;98.81
70103;BME280;57470;50.034;15.256;2023-01-24T04:59:43;101214.75;;;1.81;99.63
70103;BME280;57470;50.034;15.256;2023-01-24T05:02:09;101214.84;;;1.68;99.62
70103;BME280;57470;50.034;15.256;2023-01-24T05:04:34;101207.78;;;1.74;99.68
70103;BME280;57470;50.034;15.256;2023-01-24T05:07:00;101216.50;;;1.81;99.80
70103;BME280;57470;50.034;15.256;2023-01-24T05:09:26;101212.22;;;1.68;100.00
70103;BME280;57470;50.034;15.256;2023-01-24T05:11:51;101219.19;;;1.66;100.00
70103;BME280;57470;50.034;15.256;2023-01-24T05:14:17;101226.13;;;1.80;100.00
70103;BME280;57470;50.034;15.256;2023-01-24T05:16:42;101229.56;;;1.88;99.64
70103;BME280;57470;50.034;15.256;2023-01-24T05:19:08;101236.56;;;1.91;99.59
70103;BME280;57470;50.034;15.256;2023-01-24T05:21:33;101238.34;;;1.86;99.59
70103;BME280;57470;50.034;15.256;2023-01-24T05:23:58;101242.69;;;1.88;99.73
70103;BME280;57470;50.034;15.256;2023-01-24T05:26:25;101243.56;;;1.95;99.85
70103;BME280;57470;50.034;15.256;2023-01-24T05:28:51;101247.00;;;2.03;99.59
70103;BME280;57470;50.034;15.256;2023-01-24T05:31:17;101250.63;;;1.78;99.59
70103;BME280;57470;50.034;15.256;2023-01-24T05:33:43;101254.09;;;1.86;99.83
70103;BME280;57470;50.034;15.256;2023-01-24T05:38:41;101255.84;;;1.87;99.75
70103;BME280;57470;50.034;15.256;2023-01-24T05:41:08;101261.00;;;1.98;99.88
70103;BME280;57470;50.034;15.256;2023-01-24T05:43:35;101262.88;;;1.76;99.98
70103;BME280;57470;50.034;15.256;2023-01-24T05:46:04;101262.84;;;1.83;99.73
70103;BME280;57470;50.034;15.256;2023-01-24T05:48:30;101265.38;;;2.02;99.97
70103;BME280;57470;50.034;15.256;2023-01-24T05:50:57;101257.59;;;1.83;99.49
70103;BME280;57470;50.034;15.256;2023-01-24T05:53:23;101259.44;;;1.60;100.00
70103;BME280;57470;50.034;15.256;2023-01-24T05:55:57;101260.19;;;1.91;100.00
70103;BME280;57470;50.034;15.256;2023-01-24T05:58:24;101264.56;;;1.89;100.00
70103;BME280;57470;50.034;15.256;2023-01-24T06:00:50;101261.88;;;1.98;99.24
70103;BME280;57470;50.034;15.256;2023-01-24T06:03:15;101268.84;;;2.10;99.65
70103;BME280;57470;50.034;15.256;2023-01-24T06:05:45;101267.03;;;2.16;98.90
70103;BME280;57470;50.034;15.256;2023-01-24T06:08:10;101269.75;;;2.04;99.09
70103;BME280;57470;50.034;15.256;2023-01-24T06:10:36;101278.53;;;1.94;99.32
70103;BME280;57470;50.034;15.256;2023-01-24T06:13:01;101277.63;;;1.98;99.34
70103;BME280;57470;50.034;15.256;2023-01-24T06:15:27;101282.88;;;2.06;99.11
70103;BME280;57470;50.034;15.256;2023-01-24T06:17:53;101283.66;;;2.17;98.70
70103;BME280;57470;50.034;15.256;2023-01-24T06:20:18;101281.13;;;1.97;99.02
70103;BME280;57470;50.034;15.256;2023-01-24T06:22:48;101287.28;;;1.93;99.48
70103;BME280;57470;50.034;15.256;2023-01-24T06:25:21;101292.50;;;2.02;99.55
70103;BME280;57470;50.034;15.256;2023-01-24T06:27:48;101291.63;;;2.05;99.69
70103;BME280;57470;50.034;15.256;2023-01-24T06:30:15;101289.91;;;1.88;99.73
70103;BME280;57470;50.034;15.256;2023-01-24T06:38:24;101297.88;;;1.66;100.00
70103;BME280;57470;50.034;15.256;2023-01-24T06:40:55;101301.41;;;1.57;100.00
70103;BME280;57470;50.034;15.256;2023-01-24T06:43:22;101305.81;;;1.52;100.00
70103;BME280;57470;50.034;15.256;2023-01-24T06:45:47;101311.88;;;1.62;100.00
70103;BME280;57470;50.034;15.256;2023-01-24T06:48:13;101307.50;;;1.64;100.00
70103;BME280;57470;50.034;15.256;2023-01-24T06:50:38;101309.31;;;1.42;100.00
70103;BME280;57470;50.034;15.256;2023-01-24T06:53:04;101311.88;;;1.65;100.00
70103;BME280;57470;50.034;15.256;2023-01-24T06:55:30;101308.41;;;1.46;100.00
70103;BME280;57470;50.034;15.256;2023-01-24T06:57:57;101317.16;;;1.43;100.00
70103;BME280;57470;50.034;15.256;2023-01-24T07:00:23;101319.81;;;1.42;100.00
70103;BME280;57470;50.034;15.256;2023-01-24T07:03:05;101319.81;;;1.42;100.00
70103;BME280;57470;50.034;15.256;2023-01-24T07:05:32;101318.94;;;1.43;100.00
70103;BME280;57470;50.034;15.256;2023-01-24T07:07:57;101327.66;;;1.51;100.00
70103;BME280;57470;50.034;15.256;2023-01-24T07:10:23;101327.63;;;1.43;100.00
70103;BME280;57470;50.034;15.256;2023-01-24T07:12:48;101330.25;;;1.54;100.00
70103;BME280;57470;50.034;15.256;2023-01-24T07:15:13;101336.38;;;1.48;100.00
70103;BME280;57470;50.034;15.256;2023-01-24T07:17:39;101334.63;;;1.57;100.00
70103;BME280;57470;50.034;15.256;2023-01-24T07:20:06;101339.00;;;1.48;100.00
70103;BME280;57470;50.034;15.256;2023-01-24T07:22:32;101325.84;;;1.64;100.00
70103;BME280;57470;50.034;15.256;2023-01-24T07:24:57;101325.84;;;1.65;100.00
70103;BME280;57470;50.034;15.256;2023-01-24T07:27:23;101329.34;;;1.64;100.00
70103;BME280;57470;50.034;15.256;2023-01-24T07:29:49;101331.09;;;1.62;100.00
70103;BME280;57470;50.034;15.256;2023-01-24T07:32:14;101333.72;;;1.65;100.00
70103;BME280;57470;50.034;15.256;2023-01-24T07:34:40;101338.09;;;1.52;100.00
70103;BME280;57470;50.034;15.256;2023-01-24T07:37:06;101334.63;;;1.57;100.00
70103;BME280;57470;50.034;15.256;2023-01-24T07:39:32;101333.78;;;1.52;100.00
70103;BME280;57470;50.034;15.256;2023-01-24T07:41:57;101340.75;;;1.57;100.00
70103;BME280;57470;50.034;15.256;2023-01-24T07:44:23;101343.38;;;1.46;100.00
70103;BME280;57470;50.034;15.256;2023-01-24T07:46:48;101340.75;;;1.51;100.00
70103;BME280;57470;50.034;15.256;2023-01-24T07:49:13;101350.34;;;1.55;100.00
70103;BME280;57470;50.034;15.256;2023-01-24T07:51:39;101347.75;;;1.49;100.00
70103;BME280;57470;50.034;15.256;2023-01-24T07:54:05;101358.22;;;1.67;100.00
70103;BME280;57470;50.034;15.256;2023-01-24T07:56:30;101352.91;;;1.79;100.00
70103;BME280;57470;50.034;15.256;2023-01-24T07:58:57;101356.38;;;1.91;100.00
70103;BME280;57470;50.034;15.256;2023-01-24T08:01:23;101348.56;;;1.71;100.00
70103;BME280;57470;50.034;15.256;2023-01-24T08:03:49;101350.28;;;1.81;100.00
70103;BME280;57470;50.034;15.256;2023-01-24T08:06:14;101353.75;;;1.95;100.00
70103;BME280;57470;50.034;15.256;2023-01-24T08:08:40;101362.56;;;1.73;100.00
70103;BME280;57470;50.034;15.256;2023-01-24T08:11:05;101354.69;;;1.71;100.00
70103;BME280;57470;50.034;15.256;2023-01-24T08:13:31;101360.84;;;1.69;100.00
70103;BME280;57470;50.034;15.256;2023-01-24T08:15:56;101361.69;;;1.72;100.00
70103;BME280;57470;50.034;15.256;2023-01-24T08:18:21;101358.19;;;1.72;100.00
70103;BME280;57470;50.034;15.256;2023-01-24T08:20:47;101363.44;;;1.73;100.00
70103;BME280;57470;50.034;15.256;2023-01-24T08:23:13;101368.69;;;1.75;100.00
70103;BME280;57470;50.034;15.256;2023-01-24T08:25:39;101369.53;;;1.80;100.00
70103;BME280;57470;50.034;15.256;2023-01-24T08:28:04;101368.63;;;1.90;100.00
70103;BME280;57470;50.034;15.256;2023-01-24T08:30:30;101369.53;;;1.83;100.00
70103;BME280;57470;50.034;15.256;2023-01-24T08:33:00;101363.41;;;1.81;100.00
70103;BME280;57470;50.034;15.256;2023-01-24T08:35:25;101359.94;;;1.64;100.00
70103;BME280;57470;50.034;15.256;2023-01-24T08:37:51;101365.19;;;1.70;100.00
70103;BME280;57470;50.034;15.256;2023-01-24T08:40:16;101370.44;;;1.79;100.00
70103;BME280;57470;50.034;15.256;2023-01-24T08:42:42;101373.91;;;1.79;100.00
70103;BME280;57470;50.034;15.256;2023-01-24T08:45:08;101366.06;;;1.66;100.00
70103;BME280;57470;50.034;15.256;2023-01-24T08:47:33;101369.53;;;1.84;100.00
70103;BME280;57470;50.034;15.256;2023-01-24T08:49:58;101365.94;;;2.07;100.00
70103;BME280;57470;50.034;15.256;2023-01-24T08:52:24;101364.13;;;2.29;99.25
70103;BME280;57470;50.034;15.256;2023-01-24T08:54:49;101359.59;;;2.53;98.47
70103;BME280;57470;50.034;15.256;2023-01-24T08:57:14;101366.66;;;2.44;97.75
70103;BME280;57470;50.034;15.256;2023-01-24T08:59:40;101366.69;;;2.41;97.66
70103;BME280;57470;50.034;15.256;2023-01-24T09:02:05;101364.03;;;2.44;98.04
70103;BME280;57470;50.034;15.256;2023-01-24T09:04:31;101362.13;;;2.69;97.21
70103;BME280;57470;50.034;15.256;2023-01-24T09:06:57;101367.31;;;2.85;96.78
70103;BME280;57470;50.034;15.256;2023-01-24T09:09:22;101371.66;;;2.88;96.32
70103;BME280;57470;50.034;15.256;2023-01-24T09:11:49;101367.38;;;2.76;96.11
70103;BME280;57470;50.034;15.256;2023-01-24T09:14:15;101369.75;;;3.10;96.29
70103;BME280;57470;50.034;15.256;2023-01-24T09:16:40;101368.06;;;2.96;96.01
70103;BME280;57470;50.034;15.256;2023-01-24T09:19:05;101377.56;;;3.16;96.17
70103;BME280;57470;50.034;15.256;2023-01-24T09:21:32;101374.22;;;2.95;95.40
70103;BME280;57470;50.034;15.256;2023-01-24T09:23:57;101371.44;;;3.20;95.62
70103;BME280;57470;50.034;15.256;2023-01-24T09:26:23;101373.94;;;3.32;94.90
70103;BME280;57470;50.034;15.256;2023-01-24T09:28:48;101368.78;;;3.20;94.50
70103;BME280;57470;50.034;15.256;2023-01-24T09:31:14;101370.47;;;3.28;94.63
70103;BME280;57470;50.034;15.256;2023-01-24T09:33:39;101381.88;;;3.30;94.48
70103;BME280;57470;50.034;15.256;2023-01-24T09:36:05;101376.53;;;3.39;94.78
70103;BME280;57470;50.034;15.256;2023-01-24T09:38:32;101375.72;;;3.30;94.65
70103;BME280;57470;50.034;15.256;2023-01-24T09:41:10;101384.38;;;3.41;94.21
70103;BME280;57470;50.034;15.256;2023-01-24T09:46:26;101382.53;;;3.49;94.77
70103;BME280;57470;50.034;15.256;2023-01-24T09:51:53;101382.75;;;3.26;95.00
70103;BME280;57470;50.034;15.256;2023-01-24T09:55:34;101382.03;;;3.05;94.71
70103;BME280;57470;50.034;15.256;2023-01-24T10:02:49;101400.13;;;3.47;94.66
70103;BME280;57470;50.034;15.256;2023-01-24T10:05:15;101390.56;;;3.38;94.59
70103;BME280;57470;50.034;15.256;2023-01-24T10:10:43;101395.84;;;3.32;94.94
70103;BME280;57470;50.034;15.256;2023-01-24T10:13:33;101400.13;;;3.46;94.88
70103;BME280;57470;50.034;15.256;2023-01-24T10:19:53;101389.03;;;3.06;96.03
70103;BME280;57470;50.034;15.256;2023-01-24T10:22:53;101390.56;;;3.35;96.00
70103;BME280;57470;50.034;15.256;2023-01-24T10:25:45;101384.59;;;3.14;95.98
70103;BME280;57470;50.034;15.256;2023-01-24T10:28:28;101376.84;;;2.97;95.80
70103;BME280;57470;50.034;15.256;2023-01-24T10:31:05;101381.16;;;3.07;96.11
70103;BME280;57470;50.034;15.256;2023-01-24T10:33:46;101383.72;;;3.18;96.39
70103;BME280;57470;50.034;15.256;2023-01-24T10:38:55;101375.88;;;3.09;96.12
70103;BME280;57470;50.034;15.256;2023-01-24T10:41:25;101370.69;;;3.03;95.82
70103;BME280;57470;50.034;15.256;2023-01-24T10:49:20;101365.22;;;3.25;95.56
70103;BME280;57470;50.034;15.256;2023-01-24T10:52:11;101373.19;;;3.15;95.85
70103;BME280;57470;50.034;15.256;2023-01-24T10:57:35;101370.44;;;3.31;96.14
70103;BME280;57470;50.034;15.256;2023-01-24T11:00:09;101367.78;;;3.31;95.50
70103;BME280;57470;50.034;15.256;2023-01-24T11:02:41;101363.56;;;3.14;96.28
70103;BME280;57470;50.034;15.256;2023-01-24T11:05:12;101363.75;;;2.92;96.56
70103;BME280;57470;50.034;15.256;2023-01-24T11:07:45;101361.06;;;2.98;96.85
70103;BME280;57470;50.034;15.256;2023-01-24T11:12:57;101360.19;;;2.99;97.02
70103;BME280;57470;50.034;15.256;2023-01-24T11:15:28;101362.88;;;2.87;96.77
70103;BME280;57470;50.034;15.256;2023-01-24T11:18:17;101361.19;;;2.83;97.16
70103;BME280;57470;50.034;15.256;2023-01-24T11:20:44;101357.66;;;2.86;97.63
70103;BME280;57470;50.034;15.256;2023-01-24T11:23:15;101349.75;;;2.89;97.77
70103;BME280;57470;50.034;15.256;2023-01-24T11:25:55;101343.47;;;3.08;97.54
70103;BME280;57470;50.034;15.256;2023-01-24T11:30:50;101343.66;;;2.85;97.41
70103;BME280;57470;50.034;15.256;2023-01-24T11:36:03;101346.97;;;3.12;97.40
70103;BME280;57470;50.034;15.256;2023-01-24T11:38:35;101347.03;;;3.04;96.97
70103;BME280;57470;50.034;15.256;2023-01-24T11:41:08;101351.34;;;3.11;97.44
70103;BME280;57470;50.034;15.256;2023-01-24T11:43:48;101349.59;;;3.09;97.32
70103;BME280;57470;50.034;15.256;2023-01-24T11:49:25;101339.13;;;3.04;97.04
70103;BME280;57470;50.034;15.256;2023-01-24T11:55:02;101341.72;;;3.07;97.53
70103;BME280;57470;50.034;15.256;2023-01-24T11:58:04;101334.78;;;2.97;97.26
70103;BME280;57470;50.034;15.256;2023-01-24T12:08:44;101327.59;;;3.22;97.16
70103;BME280;57470;50.034;15.256;2023-01-24T12:11:28;101320.69;;;3.07;97.53
70103;BME280;57470;50.034;15.256;2023-01-24T12:16:56;101325.19;;;2.94;98.00
70103;BME280;57470;50.034;15.256;2023-01-24T12:19:55;101327.97;;;2.76;98.18
70103;BME280;57470;50.034;15.256;2023-01-24T12:22:28;101328.78;;;2.81;98.55
70103;BME280;57470;50.034;15.256;2023-01-24T12:25:38;101316.44;;;2.92;98.57
70103;BME280;57470;50.034;15.256;2023-01-24T12:28:05;101317.38;;;2.85;98.90
70103;BME280;57470;50.034;15.256;2023-01-24T12:30:38;101314.69;;;2.94;98.85
70103;BME280;57470;50.034;15.256;2023-01-24T12:35:58;101304.25;;;2.81;98.27
70103;BME280;57470;50.034;15.256;2023-01-24T12:38:35;101303.38;;;2.82;98.73
70103;BME280;57470;50.034;15.256;2023-01-24T12:41:09;101299.88;;;2.80;98.79
70103;BME280;57470;50.034;15.256;2023-01-24T12:46:57;101310.41;;;2.80;98.86
70103;BME280;57470;50.034;15.256;2023-01-24T12:55:04;101319.22;;;2.73;99.05
70103;BME280;57470;50.034;15.256;2023-01-24T12:57:45;101316.59;;;2.73;99.13
70103;BME280;57470;50.034;15.256;2023-01-24T13:00:18;101318.34;;;2.69;99.56
70103;BME280;57470;50.034;15.256;2023-01-24T13:02:54;101317.41;;;2.79;99.09
70103;BME280;57470;50.034;15.256;2023-01-24T13:05:37;101319.16;;;2.82;98.89
70103;BME280;57470;50.034;15.256;2023-01-24T13:11:21;101320.03;;;2.81;98.98
70103;BME280;57470;50.034;15.256;2023-01-24T13:22:10;101314.75;;;2.84;98.94
70103;BME280;57470;50.034;15.256;2023-01-24T13:31:16;101306.59;;;3.14;97.96
70103;BME280;57470;50.034;15.256;2023-01-24T13:33:55;101311.91;;;3.11;98.15
70103;BME280;57470;50.034;15.256;2023-01-24T13:36:26;101318.03;;;3.10;97.88
70103;BME280;57470;50.034;15.256;2023-01-24T13:38:55;101315.50;;;3.03;98.62
70103;BME280;57470;50.034;15.256;2023-01-24T13:44:26;101314.63;;;2.99;98.52
70103;BME280;57470;50.034;15.256;2023-01-24T13:46:57;101315.50;;;2.96;98.71
70103;BME280;57470;50.034;15.256;2023-01-24T13:52:01;101313.75;;;3.01;97.98
70103;BME280;57470;50.034;15.256;2023-01-24T13:54:39;101311.09;;;3.01;97.80
70103;BME280;57470;50.034;15.256;2023-01-24T13:57:33;101318.00;;;3.15;98.45
70103;BME280;57470;50.034;15.256;2023-01-24T14:00:15;101328.50;;;3.16;98.13
70103;BME280;57470;50.034;15.256;2023-01-24T14:08:02;101320.78;;;2.96;98.74
70103;BME280;57470;50.034;15.256;2023-01-24T14:10:38;101327.84;;;2.90;99.06
70103;BME280;57470;50.034;15.256;2023-01-24T14:13:09;101316.63;;;2.65;99.19
70103;BME280;57470;50.034;15.256;2023-01-24T14:15:50;101314.94;;;2.55;99.81
70103;BME280;57470;50.034;15.256;2023-01-24T14:21:18;101316.75;;;2.50;100.00
70103;BME280;57470;50.034;15.256;2023-01-24T14:23:47;101325.47;;;2.55;100.00
70103;BME280;57470;50.034;15.256;2023-01-24T14:26:15;101330.78;;;2.46;100.00
70103;BME280;57470;50.034;15.256;2023-01-24T14:28:45;101321.16;;;2.43;100.00
70103;BME280;57470;50.034;15.256;2023-01-24T14:31:21;101321.09;;;2.51;100.00
70103;BME280;57470;50.034;15.256;2023-01-24T14:33:52;101322.94;;;2.40;100.00
70103;BME280;57470;50.034;15.256;2023-01-24T14:36:27;101320.25;;;2.44;100.00
70103;BME280;57470;50.034;15.256;2023-01-24T14:39:16;101328.97;;;2.51;100.00
70103;BME280;57470;50.034;15.256;2023-01-24T14:41:43;101331.53;;;2.60;100.00
70103;BME280;57470;50.034;15.256;2023-01-24T14:44:33;101329.00;;;2.49;100.00
70103;BME280;57470;50.034;15.256;2023-01-24T14:47:05;101334.09;;;2.69;100.00
70103;BME280;57470;50.034;15.256;2023-01-24T14:49:44;101328.97;;;2.51;100.00
70103;BME280;57470;50.034;15.256;2023-01-24T14:52:30;101331.63;;;2.46;100.00
70103;BME280;57470;50.034;15.256;2023-01-24T14:55:14;101328.13;;;2.47;100.00
70103;BME280;57470;50.034;15.256;2023-01-24T14:57:46;101338.69;;;2.37;100.00